Time;durP1;ratioP1;P1;durP2;ratioP2;P2;SDS_P1;SDS_P2;PMS_P1;PMS_P2;Temp;Humidity;BMP_temperature;BMP_pressure;BME280_temperature;BME280_humidity;BME280_pressure;Samples;Min_cycle;Max_cycle;Signal;HPM_P1;HPM_P2
2024/04/24 00:02:25;;;;;;;29.83;8.02;;;;;;;;;;5500312;26;19995;-61
2024/04/24 00:04:51;;;;;;;24.52;7.25;;;;;;;;;;5500281;26;20074;-61
2024/04/24 00:07:17;;;;;;;31.73;8.60;;;;;;;;;;5470140;26;20328;-61
2024/04/24 00:09:43;;;;;;;35.60;8.05;;;;;;;;;;5500521;26;20013;-61
2024/04/24 00:12:09;;;;;;;26.83;7.70;;;;;;;;;;5503147;26;20070;-61
2024/04/24 00:14:35;;;;;;;42.92;8.07;;;;;;;;;;5504189;26;20006;-61
2024/04/24 00:17:01;;;;;;;23.42;7.32;;;;;;;;;;5505479;26;20445;-61
2024/04/24 00:19:27;;;;;;;27.70;7.80;;;;;;;;;;5505549;26;19994;-61
2024/04/24 00:21:53;;;;;;;35.85;7.32;;;;;;;;;;5503663;26;20001;-61
2024/04/24 00:24:19;;;;;;;29.05;7.93;;;;;;;;;;5503825;26;19998;-61
2024/04/24 00:26:45;;;;;;;26.02;7.13;;;;;;;;;;5473329;26;19998;-61
2024/04/24 00:29:11;;;;;;;20.92;6.75;;;;;;;;;;5505298;26;19998;-61
2024/04/24 00:31:37;;;;;;;23.10;7.78;;;;;;;;;;5505321;26;20002;-61
2024/04/24 00:34:03;;;;;;;19.40;6.65;;;;;;;;;;5503490;26;19994;-61
2024/04/24 00:36:29;;;;;;;24.30;7.88;;;;;;;;;;5504876;26;20013;-61
2024/04/24 00:38:58;;;;;;;22.48;7.90;;;;;;;;;;5505225;26;20002;-61
2024/04/24 00:41:24;;;;;;;22.25;7.35;;;;;;;;;;5505039;26;20014;-61
2024/04/24 00:43:52;;;;;;;22.92;6.97;;;;;;;;;;5503726;26;20064;-60
2024/04/24 00:46:19;;;;;;;22.45;6.85;;;;;;;;;;5505063;26;20042;-61
2024/04/24 00:48:45;;;;;;;19.70;6.38;;;;;;;;;;5503778;26;20002;-61
2024/04/24 00:51:11;;;;;;;27.02;7.03;;;;;;;;;;5505123;26;20049;-61
2024/04/24 00:53:37;;;;;;;29.33;7.03;;;;;;;;;;5503608;26;19998;-61
2024/04/24 00:56:06;;;;;;;23.75;7.55;;;;;;;;;;5503292;26;20009;-61
2024/04/24 00:58:32;;;;;;;25.95;7.30;;;;;;;;;;5503392;26;20036;-61
2024/04/24 01:00:58;;;;;;;17.02;6.97;;;;;;;;;;5503254;26;20009;-61
2024/04/24 01:03:25;;;;;;;19.75;7.07;;;;;;;;;;5503540;26;20002;-61
2024/04/24 01:05:51;;;;;;;18.60;6.35;;;;;;;;;;5503410;26;20002;-61
2024/04/24 01:08:17;;;;;;;15.23;6.53;;;;;;;;;;5504957;26;20077;-61
2024/04/24 01:10:43;;;;;;;17.10;6.50;;;;;;;;;;5503313;26;20002;-60
2024/04/24 01:13:09;;;;;;;19.00;6.88;;;;;;;;;;5503078;26;19994;-61
2024/04/24 01:15:35;;;;;;;18.95;6.85;;;;;;;;;;5472609;26;20348;-61
2024/04/24 01:18:01;;;;;;;22.30;7.25;;;;;;;;;;5472757;26;19994;-61
2024/04/24 01:20:27;;;;;;;17.73;6.78;;;;;;;;;;5504920;26;19998;-61
2024/04/24 01:23:05;;;;;;;21.30;7.32;;;;;;;;;;5503520;26;19998;-61
2024/04/24 01:25:33;;;;;;;22.30;6.57;;;;;;;;;;5503639;26;19999;-61
2024/04/24 01:27:59;;;;;;;20.52;7.25;;;;;;;;;;5503125;26;20007;-61
2024/04/24 01:30:25;;;;;;;18.08;6.88;;;;;;;;;;5504529;26;20456;-61
2024/04/24 01:32:51;;;;;;;20.88;7.32;;;;;;;;;;5504424;26;20022;-61
2024/04/24 01:35:17;;;;;;;15.85;5.93;;;;;;;;;;5504303;26;19994;-61
2024/04/24 01:37:43;;;;;;;13.10;6.22;;;;;;;;;;5504537;26;20021;-61
2024/04/24 01:40:09;;;;;;;20.95;5.97;;;;;;;;;;5502832;26;19994;-61
2024/04/24 01:42:35;;;;;;;15.68;6.57;;;;;;;;;;5502709;26;20010;-61
2024/04/24 01:45:01;;;;;;;9.80;5.38;;;;;;;;;;5504460;26;20005;-61
2024/04/24 01:47:27;;;;;;;15.40;5.90;;;;;;;;;;5502824;26;19991;-61
2024/04/24 01:49:53;;;;;;;14.35;6.32;;;;;;;;;;5502616;26;20001;-61
2024/04/24 01:52:19;;;;;;;11.68;6.28;;;;;;;;;;5502556;26;20018;-61
2024/04/24 01:54:45;;;;;;;15.80;6.38;;;;;;;;;;5502147;26;19998;-61
2024/04/24 01:57:11;;;;;;;17.02;6.72;;;;;;;;;;5472029;26;20026;-61
2024/04/24 01:59:37;;;;;;;17.00;6.05;;;;;;;;;;5504046;26;20026;-61
2024/04/24 02:02:03;;;;;;;11.82;5.80;;;;;;;;;;5503691;26;19998;-61
2024/04/24 02:04:29;;;;;;;18.40;6.22;;;;;;;;;;5504121;26;19998;-61
2024/04/24 02:06:55;;;;;;;12.65;5.45;;;;;;;;;;5502060;26;20002;-61
2024/04/24 02:09:21;;;;;;;14.48;6.03;;;;;;;;;;5502323;26;19994;-61
2024/04/24 02:11:47;;;;;;;14.02;6.03;;;;;;;;;;5503750;26;20006;-61
2024/04/24 02:14:13;;;;;;;13.23;6.18;;;;;;;;;;5502467;26;20525;-62
2024/04/24 02:16:39;;;;;;;12.98;5.82;;;;;;;;;;5503838;26;19994;-61
2024/04/24 02:19:05;;;;;;;12.13;5.80;;;;;;;;;;5503745;26;19990;-61
2024/04/24 02:21:31;;;;;;;11.98;6.07;;;;;;;;;;5503466;26;20012;-61
2024/04/24 02:23:59;;;;;;;13.60;5.85;;;;;;;;;;5502033;26;20043;-61
2024/04/24 02:26:25;;;;;;;13.75;5.85;;;;;;;;;;5503608;26;19998;-61
2024/04/24 02:28:51;;;;;;;9.65;5.78;;;;;;;;;;5502001;26;20008;-61
2024/04/24 02:31:17;;;;;;;12.23;5.57;;;;;;;;;;5503444;26;19998;-61
2024/04/24 02:33:43;;;;;;;12.95;5.75;;;;;;;;;;5501868;26;20340;-61
2024/04/24 02:36:09;;;;;;;11.75;6.50;;;;;;;;;;5501875;26;20005;-61
2024/04/24 02:38:35;;;;;;;16.83;6.20;;;;;;;;;;5501848;26;19994;-61
2024/04/24 02:41:01;;;;;;;13.98;6.05;;;;;;;;;;5501712;26;20082;-61
2024/04/24 02:43:27;;;;;;;10.38;5.85;;;;;;;;;;5501700;26;20006;-61
2024/04/24 02:45:53;;;;;;;11.52;5.82;;;;;;;;;;5501626;26;19998;-61
2024/04/24 02:48:19;;;;;;;7.47;5.65;;;;;;;;;;5503332;26;19993;-61
2024/04/24 02:50:46;;;;;;;11.88;5.97;;;;;;;;;;5501669;26;19998;-61
2024/04/24 02:53:12;;;;;;;12.85;5.85;;;;;;;;;;5503269;26;20001;-61
2024/04/24 02:55:38;;;;;;;9.52;5.90;;;;;;;;;;5503335;26;19997;-61
2024/04/24 02:58:04;;;;;;;12.38;5.95;;;;;;;;;;5503215;26;19990;-61
2024/04/24 03:00:30;;;;;;;12.63;6.03;;;;;;;;;;5503092;26;20039;-61
2024/04/24 03:02:56;;;;;;;11.00;5.68;;;;;;;;;;5503200;26;19994;-61
2024/04/24 03:05:22;;;;;;;10.48;6.22;;;;;;;;;;5503142;26;20002;-61
2024/04/24 03:07:48;;;;;;;13.25;6.07;;;;;;;;;;5502847;26;20004;-61
2024/04/24 03:10:14;;;;;;;9.15;5.75;;;;;;;;;;5503155;26;19990;-61
2024/04/24 03:12:40;;;;;;;9.15;5.45;;;;;;;;;;5502962;26;20452;-61
2024/04/24 03:15:07;;;;;;;9.23;5.43;;;;;;;;;;5470949;26;20473;-61
2024/04/24 03:17:33;;;;;;;9.85;5.35;;;;;;;;;;5501197;26;19994;-61
2024/04/24 03:19:59;;;;;;;7.32;5.80;;;;;;;;;;5501354;26;20006;-62
2024/04/24 03:22:25;;;;;;;7.45;5.20;;;;;;;;;;5501119;26;20009;-61
2024/04/24 03:24:51;;;;;;;10.23;5.38;;;;;;;;;;5502812;26;20087;-61
2024/04/24 03:27:17;;;;;;;8.00;5.43;;;;;;;;;;5502622;26;20013;-61
2024/04/24 03:29:43;;;;;;;7.15;6.30;;;;;;;;;;5502694;26;19998;-61
2024/04/24 03:32:09;;;;;;;9.52;5.60;;;;;;;;;;5501045;26;20005;-61
2024/04/24 03:34:35;;;;;;;8.95;5.72;;;;;;;;;;5502623;26;19994;-61
2024/04/24 03:37:01;;;;;;;6.22;5.05;;;;;;;;;;5502471;26;20460;-61
2024/04/24 03:39:27;;;;;;;7.00;5.80;;;;;;;;;;5502450;26;20002;-61
2024/04/24 03:41:53;;;;;;;8.73;5.95;;;;;;;;;;5500712;26;20009;-61
2024/04/24 03:44:19;;;;;;;7.10;5.57;;;;;;;;;;5500769;26;20401;-61
2024/04/24 03:46:45;;;;;;;8.27;5.75;;;;;;;;;;5502192;26;20005;-61
2024/04/24 03:49:11;;;;;;;8.80;5.88;;;;;;;;;;5501548;26;19990;-61
2024/04/24 03:51:37;;;;;;;8.63;6.35;;;;;;;;;;5500513;26;19998;-61
2024/04/24 03:54:03;;;;;;;9.93;6.28;;;;;;;;;;5502245;26;19994;-61
2024/04/24 03:56:29;;;;;;;10.73;6.05;;;;;;;;;;5502125;26;19998;-61
2024/04/24 03:58:55;;;;;;;7.10;5.70;;;;;;;;;;5500531;26;19994;-61
2024/04/24 04:01:25;;;;;;;8.15;5.53;;;;;;;;;;5500554;26;20463;-61
2024/04/24 04:03:51;;;;;;;9.68;5.78;;;;;;;;;;5500512;26;19998;-61
2024/04/24 04:06:17;;;;;;;10.88;6.82;;;;;;;;;;5501946;26;20405;-60
2024/04/24 04:08:43;;;;;;;9.90;5.75;;;;;;;;;;5500405;26;20025;-61
2024/04/24 04:11:09;;;;;;;10.40;5.68;;;;;;;;;;5497049;26;19994;-61
2024/04/24 04:13:35;;;;;;;9.02;5.72;;;;;;;;;;5498818;26;20002;-61
2024/04/24 04:16:01;;;;;;;8.48;6.03;;;;;;;;;;5502060;26;20005;-61
2024/04/24 04:18:27;;;;;;;7.82;5.38;;;;;;;;;;5498294;26;19998;-61
2024/04/24 04:20:53;;;;;;;7.20;6.43;;;;;;;;;;5468482;26;20005;-61
2024/04/24 04:23:19;;;;;;;7.22;6.05;;;;;;;;;;5498799;26;19998;-61
2024/04/24 04:25:45;;;;;;;10.55;6.15;;;;;;;;;;5498523;26;20051;-61
2024/04/24 04:28:11;;;;;;;7.88;6.28;;;;;;;;;;5499249;26;20348;-61
2024/04/24 04:30:37;;;;;;;6.97;5.68;;;;;;;;;;5466883;26;20063;-61
2024/04/24 04:33:03;;;;;;;7.68;5.70;;;;;;;;;;5499791;26;19990;-61
2024/04/24 04:35:29;;;;;;;7.28;5.40;;;;;;;;;;5501649;26;20006;-61
2024/04/24 04:37:55;;;;;;;11.85;5.53;;;;;;;;;;5465800;26;19995;-61
2024/04/24 04:40:21;;;;;;;8.07;5.68;;;;;;;;;;5469061;26;19990;-61
2024/04/24 04:42:47;;;;;;;14.10;6.15;;;;;;;;;;5500734;26;20125;-61
2024/04/24 04:45:13;;;;;;;9.88;5.80;;;;;;;;;;5500893;26;20344;-61
2024/04/24 04:47:39;;;;;;;19.77;6.63;;;;;;;;;;5500527;26;20020;-61
2024/04/24 04:50:05;;;;;;;12.98;6.00;;;;;;;;;;5468683;26;20002;-61
2024/04/24 04:52:31;;;;;;;12.50;7.07;;;;;;;;;;5438865;26;19995;-61
2024/04/24 04:54:57;;;;;;;13.75;7.07;;;;;;;;;;5500938;26;20009;-61
2024/04/24 04:57:23;;;;;;;19.65;6.93;;;;;;;;;;5500598;26;20010;-61
2024/04/24 04:59:50;;;;;;;24.67;7.72;;;;;;;;;;5500705;26;20002;-61
2024/04/24 05:02:16;;;;;;;23.05;7.07;;;;;;;;;;5472214;26;20010;-61
2024/04/24 05:04:42;;;;;;;26.00;7.88;;;;;;;;;;5504712;26;20048;-61
2024/04/24 05:07:08;;;;;;;22.67;7.03;;;;;;;;;;5504642;26;20074;-61
2024/04/24 05:09:35;;;;;;;23.38;7.40;;;;;;;;;;5504586;26;19998;-61
2024/04/24 05:12:01;;;;;;;22.95;8.93;;;;;;;;;;5504491;26;19998;-61
2024/04/24 05:14:27;;;;;;;15.13;7.53;;;;;;;;;;5504504;26;19998;-61
2024/04/24 05:16:53;;;;;;;22.17;8.15;;;;;;;;;;5504195;26;20055;-61
2024/04/24 05:19:19;;;;;;;24.70;9.25;;;;;;;;;;5504303;26;19994;-61
2024/04/24 05:21:45;;;;;;;23.67;8.30;;;;;;;;;;5504218;26;19998;-61
2024/04/24 05:24:11;;;;;;;28.42;7.93;;;;;;;;;;5504403;26;20022;-61
2024/04/24 05:29:22;;;;;;;66.38;10.32;;;;;;;;;;5504574;26;20005;-61
2024/04/24 05:31:49;;;;;;;64.15;11.18;;;;;;;;;;5504089;26;19998;-61
2024/04/24 05:34:16;;;;;;;50.33;10.50;;;;;;;;;;5472559;26;20002;-61
2024/04/24 05:36:42;;;;;;;54.95;10.55;;;;;;;;;;5472210;26;19994;-61
2024/04/24 05:39:08;;;;;;;52.33;11.20;;;;;;;;;;5504076;26;19990;-62
2024/04/24 05:41:34;;;;;;;36.28;9.52;;;;;;;;;;5471855;26;20467;-60
2024/04/24 05:44:00;;;;;;;50.50;10.77;;;;;;;;;;5472331;26;20005;-62
2024/04/24 05:46:26;;;;;;;54.15;10.60;;;;;;;;;;5472052;26;20093;-60
2024/04/24 05:48:52;;;;;;;61.20;12.07;;;;;;;;;;5472015;26;19994;-61
2024/04/24 05:51:18;;;;;;;62.53;12.93;;;;;;;;;;5441263;26;19994;-61
2024/04/24 05:53:44;;;;;;;58.42;12.43;;;;;;;;;;5502386;26;19994;-61
2024/04/24 05:56:10;;;;;;;48.63;11.70;;;;;;;;;;5471382;26;19998;-61
2024/04/24 05:58:36;;;;;;;53.38;11.32;;;;;;;;;;5499617;26;19990;-61
2024/04/24 06:01:02;;;;;;;42.53;10.73;;;;;;;;;;5502130;26;20333;-61
2024/04/24 06:03:28;;;;;;;50.53;10.98;;;;;;;;;;5500827;26;20035;-61
2024/04/24 06:05:54;;;;;;;32.58;8.80;;;;;;;;;;5503609;26;20057;-62
2024/04/24 06:08:20;;;;;;;26.05;9.38;;;;;;;;;;5503504;26;20006;-61
2024/04/24 06:10:46;;;;;;;45.00;10.00;;;;;;;;;;5503575;26;20005;-61
2024/04/24 06:13:12;;;;;;;47.10;12.05;;;;;;;;;;5470060;26;20325;-62
2024/04/24 06:15:38;;;;;;;40.78;11.57;;;;;;;;;;5477929;26;20005;-62
2024/04/24 06:18:04;;;;;;;32.13;10.90;;;;;;;;;;5471124;26;19994;-61
2024/04/24 06:20:30;;;;;;;37.05;9.93;;;;;;;;;;5503379;26;19990;-61
2024/04/24 06:22:56;;;;;;;35.15;10.55;;;;;;;;;;5499500;26;19994;-61
2024/04/24 06:25:22;;;;;;;32.30;9.82;;;;;;;;;;5503333;26;20009;-61
2024/04/24 06:27:48;;;;;;;29.70;9.93;;;;;;;;;;5502903;26;20018;-61
2024/04/24 06:30:14;;;;;;;33.10;9.45;;;;;;;;;;5469673;26;20005;-61
2024/04/24 06:32:40;;;;;;;34.60;9.90;;;;;;;;;;5501983;26;19994;-60
2024/04/24 06:35:06;;;;;;;26.75;9.07;;;;;;;;;;5502534;26;19986;-61
2024/04/24 06:37:32;;;;;;;32.17;9.20;;;;;;;;;;5502912;26;19994;-62
2024/04/24 06:39:58;;;;;;;26.42;8.95;;;;;;;;;;5469951;26;20012;-61
2024/04/24 06:42:24;;;;;;;27.30;8.07;;;;;;;;;;5470014;26;20098;-61
2024/04/24 06:44:51;;;;;;;31.23;8.85;;;;;;;;;;5470430;26;19991;-60
2024/04/24 06:47:17;;;;;;;26.48;9.50;;;;;;;;;;5499854;26;20042;-61
2024/04/24 06:49:43;;;;;;;27.38;8.25;;;;;;;;;;5502492;26;20456;-64
2024/04/24 06:52:09;;;;;;;38.53;9.70;;;;;;;;;;5502461;26;20002;-61
2024/04/24 06:54:35;;;;;;;31.65;9.85;;;;;;;;;;5468774;26;19990;-62
2024/04/24 06:57:01;;;;;;;38.78;10.52;;;;;;;;;;5468692;26;20009;-61
2024/04/24 06:59:27;;;;;;;30.63;9.77;;;;;;;;;;5500469;26;19994;-61
2024/04/24 07:01:53;;;;;;;31.98;10.40;;;;;;;;;;5500111;26;20009;-61
2024/04/24 07:04:20;;;;;;;29.90;8.93;;;;;;;;;;5500256;26;19998;-61
2024/04/24 07:06:46;;;;;;;26.38;9.07;;;;;;;;;;5467382;26;20000;-61
2024/04/24 07:09:12;;;;;;;35.72;9.48;;;;;;;;;;5500835;26;19994;-61
2024/04/24 07:11:38;;;;;;;32.13;9.00;;;;;;;;;;5467849;26;20376;-61
2024/04/24 07:14:04;;;;;;;27.08;9.75;;;;;;;;;;5501225;26;19994;-61
2024/04/24 07:16:30;;;;;;;18.75;8.88;;;;;;;;;;5507083;26;19998;-61
2024/04/24 07:18:56;;;;;;;26.60;8.88;;;;;;;;;;5467154;26;19990;-61
2024/04/24 07:21:22;;;;;;;29.10;8.88;;;;;;;;;;5468254;26;20140;-61
2024/04/24 07:23:48;;;;;;;30.80;9.30;;;;;;;;;;5493102;26;19998;-61
2024/04/24 07:26:14;;;;;;;22.08;8.88;;;;;;;;;;5466940;26;20027;-61
2024/04/24 07:28:40;;;;;;;19.20;8.48;;;;;;;;;;5436026;26;19989;-61
2024/04/24 07:31:06;;;;;;;42.53;9.35;;;;;;;;;;5499463;26;20316;-61
2024/04/24 07:33:32;;;;;;;29.73;10.23;;;;;;;;;;5472298;26;19998;-61
2024/04/24 07:35:58;;;;;;;27.85;9.80;;;;;;;;;;5499890;26;20009;-61
2024/04/24 07:38:24;;;;;;;28.52;10.13;;;;;;;;;;5466046;26;20004;-61
2024/04/24 07:40:50;;;;;;;28.20;9.68;;;;;;;;;;5433043;26;19994;-61
2024/04/24 07:43:16;;;;;;;35.20;10.55;;;;;;;;;;5493130;26;20460;-61
2024/04/24 07:45:43;;;;;;;35.05;10.32;;;;;;;;;;5495376;26;20360;-61
2024/04/24 07:48:09;;;;;;;46.00;10.13;;;;;;;;;;5462868;26;19997;-61
2024/04/24 07:50:35;;;;;;;37.15;10.18;;;;;;;;;;5499110;26;20001;-61
2024/04/24 07:53:01;;;;;;;39.58;10.27;;;;;;;;;;5498664;26;19998;-61
2024/04/24 07:55:27;;;;;;;49.33;10.90;;;;;;;;;;5467658;26;20430;-61
2024/04/24 07:57:53;;;;;;;51.92;12.13;;;;;;;;;;5459240;26;20002;-61
2024/04/24 08:00:20;;;;;;;55.88;11.55;;;;;;;;;;5498532;26;20006;-61
2024/04/24 08:02:46;;;;;;;38.95;10.18;;;;;;;;;;5436072;26;19994;-61
2024/04/24 08:05:12;;;;;;;80.13;14.60;;;;;;;;;;5437609;26;20005;-61
2024/04/24 08:07:38;;;;;;;75.05;14.95;;;;;;;;;;5498356;26;20002;-61
2024/04/24 08:10:04;;;;;;;106.45;16.20;;;;;;;;;;5496824;26;20009;-61
2024/04/24 08:12:30;;;;;;;79.70;13.90;;;;;;;;;;5490847;26;20021;-61
2024/04/24 08:14:56;;;;;;;65.05;13.90;;;;;;;;;;5489213;26;19998;-61
2024/04/24 08:17:22;;;;;;;99.10;17.50;;;;;;;;;;5454145;26;19998;-62
2024/04/24 08:19:48;;;;;;;133.10;21.58;;;;;;;;;;5454035;26;20017;-61
2024/04/24 08:22:14;;;;;;;114.80;18.67;;;;;;;;;;5487857;26;20006;-61
2024/04/24 08:24:40;;;;;;;119.97;17.73;;;;;;;;;;5456317;26;20054;-61
2024/04/24 08:27:06;;;;;;;110.07;17.75;;;;;;;;;;5450464;26;20022;-61
2024/04/24 08:29:32;;;;;;;84.95;15.98;;;;;;;;;;5424013;26;19998;-61
2024/04/24 08:31:58;;;;;;;67.68;13.77;;;;;;;;;;5451269;26;19994;-60
2024/04/24 08:34:24;;;;;;;78.20;13.35;;;;;;;;;;5450317;26;20002;-61
2024/04/24 08:36:50;;;;;;;93.00;13.77;;;;;;;;;;5453875;26;20021;-61
2024/04/24 08:39:16;;;;;;;72.47;13.57;;;;;;;;;;5455652;26;20007;-61
2024/04/24 08:41:43;;;;;;;58.08;12.27;;;;;;;;;;5451919;26;20006;-61
2024/04/24 08:44:09;;;;;;;50.38;12.25;;;;;;;;;;5458315;26;20082;-61
2024/04/24 08:46:35;;;;;;;60.88;11.40;;;;;;;;;;5458854;26;20005;-61
2024/04/24 08:49:02;;;;;;;69.72;12.77;;;;;;;;;;5456426;26;20006;-61
2024/04/24 08:51:28;;;;;;;65.38;12.30;;;;;;;;;;5454069;26;20070;-61
2024/04/24 08:53:55;;;;;;;62.53;11.35;;;;;;;;;;5457459;26;20010;-61
2024/04/24 08:56:22;;;;;;;47.47;10.82;;;;;;;;;;5491081;26;19998;-60
2024/04/24 08:58:48;;;;;;;49.08;10.75;;;;;;;;;;5491997;26;20002;-61
2024/04/24 09:01:14;;;;;;;61.03;11.38;;;;;;;;;;5422931;26;20013;-61
2024/04/24 09:03:40;;;;;;;66.68;12.48;;;;;;;;;;5491125;26;20010;-61
2024/04/24 09:06:08;;;;;;;56.53;11.95;;;;;;;;;;5427251;26;20022;-61
2024/04/24 09:08:34;;;;;;;58.00;11.63;;;;;;;;;;5458584;26;19998;-61
2024/04/24 09:11:00;;;;;;;84.93;12.32;;;;;;;;;;5458058;26;20006;-61
2024/04/24 09:13:26;;;;;;;61.40;13.25;;;;;;;;;;5491068;26;20021;-61
2024/04/24 09:15:52;;;;;;;45.35;9.73;;;;;;;;;;5490589;26;20010;-61
2024/04/24 09:18:18;;;;;;;97.35;14.20;;;;;;;;;;5428148;26;20040;-61
2024/04/24 09:20:49;;;;;;;71.07;13.35;;;;;;;;;;5455513;26;20006;-61
2024/04/24 09:23:18;;;;;;;75.85;12.02;;;;;;;;;;5485533;26;20021;-61
2024/04/24 09:25:44;;;;;;;275.17;30.92;;;;;;;;;;5452927;26;20201;-61
2024/04/24 09:28:11;;;;;;;162.55;21.95;;;;;;;;;;5447961;26;20002;-61
2024/04/24 09:30:37;;;;;;;98.85;15.50;;;;;;;;;;5483199;26;19998;-61
2024/04/24 09:33:03;;;;;;;72.47;12.63;;;;;;;;;;5485304;26;20078;-61
2024/04/24 09:35:29;;;;;;;56.38;11.68;;;;;;;;;;5452132;26;20045;-61
2024/04/24 09:37:56;;;;;;;54.53;9.45;;;;;;;;;;5454868;26;20009;-61
2024/04/24 09:40:22;;;;;;;60.35;10.57;;;;;;;;;;5456674;26;20012;-61
2024/04/24 09:42:48;;;;;;;42.67;8.43;;;;;;;;;;5459584;26;20024;-61
2024/04/24 09:45:14;;;;;;;49.70;9.90;;;;;;;;;;5458611;26;20002;-61
2024/04/24 09:47:44;;;;;;;60.10;9.70;;;;;;;;;;5483568;26;20021;-61
2024/04/24 09:50:10;;;;;;;46.50;9.52;;;;;;;;;;5455322;26;20006;-61
2024/04/24 09:52:36;;;;;;;48.08;10.75;;;;;;;;;;5484225;26;20048;-61
2024/04/24 09:55:02;;;;;;;41.20;9.23;;;;;;;;;;5430948;26;20006;-61
2024/04/24 09:57:33;;;;;;;46.50;9.00;;;;;;;;;;5456023;26;20006;-61
2024/04/24 10:00:00;;;;;;;45.05;8.20;;;;;;;;;;5426756;26;20005;-61
2024/04/24 10:02:26;;;;;;;48.13;7.55;;;;;;;;;;5483064;26;20755;-61
2024/04/24 10:04:55;;;;;;;37.58;7.43;;;;;;;;;;5477300;26;20009;-61
2024/04/24 10:07:21;;;;;;;30.48;5.80;;;;;;;;;;5488174;26;20002;-61
2024/04/24 10:09:48;;;;;;;37.38;6.97;;;;;;;;;;5425364;26;20002;-61
2024/04/24 10:12:33;;;;;;;41.05;7.68;;;;;;;;;;5450823;26;20034;-61
2024/04/24 10:15:02;;;;;;;38.08;7.15;;;;;;;;;;5483750;26;20039;-61
2024/04/24 10:17:28;;;;;;;35.90;6.35;;;;;;;;;;5453034;26;20006;-61
2024/04/24 10:19:54;;;;;;;32.03;6.65;;;;;;;;;;5453144;26;20494;-61
2024/04/24 10:22:20;;;;;;;26.33;5.72;;;;;;;;;;5423085;26;20002;-61
2024/04/24 10:24:46;;;;;;;34.92;5.57;;;;;;;;;;5485385;26;20017;-61
2024/04/24 10:27:12;;;;;;;22.95;4.93;;;;;;;;;;5454300;26;20556;-63
2024/04/24 10:29:38;;;;;;;21.83;4.95;;;;;;;;;;5484139;26;20018;-62
2024/04/24 10:32:04;;;;;;;32.85;5.45;;;;;;;;;;5449392;26;19998;-63
2024/04/24 10:34:30;;;;;;;23.23;4.75;;;;;;;;;;5457718;26;20002;-62
2024/04/24 10:36:58;;;;;;;19.50;4.47;;;;;;;;;;5486587;26;20028;-62
2024/04/24 10:39:24;;;;;;;26.63;5.15;;;;;;;;;;5426059;26;20002;-62
2024/04/24 10:41:51;;;;;;;16.63;4.70;;;;;;;;;;5481355;26;20016;-62
2024/04/24 10:44:17;;;;;;;26.17;5.43;;;;;;;;;;5426976;26;19998;-62
2024/04/24 10:46:43;;;;;;;27.77;5.32;;;;;;;;;;5455634;26;20017;-63
2024/04/24 10:49:09;;;;;;;33.00;5.38;;;;;;;;;;5458455;26;20013;-62
2024/04/24 10:51:35;;;;;;;21.50;4.78;;;;;;;;;;5453797;26;20484;-62
2024/04/24 10:54:08;;;;;;;18.67;4.40;;;;;;;;;;5484978;26;20074;-62
2024/04/24 10:56:35;;;;;;;13.88;4.15;;;;;;;;;;5486309;26;20017;-62
2024/04/24 10:59:01;;;;;;;15.10;3.80;;;;;;;;;;5486689;26;20006;-62
2024/04/24 11:01:30;;;;;;;19.88;3.42;;;;;;;;;;5423888;26;20082;-62
2024/04/24 11:03:56;;;;;;;16.35;3.35;;;;;;;;;;5451273;26;20010;-62
2024/04/24 11:06:22;;;;;;;18.40;3.85;;;;;;;;;;5420639;26;20354;-62
2024/04/24 11:08:50;;;;;;;30.80;4.55;;;;;;;;;;5448120;26;20457;-62
2024/04/24 11:11:22;;;;;;;15.73;3.78;;;;;;;;;;5449108;26;20014;-62
2024/04/24 11:13:59;;;;;;;27.50;4.03;;;;;;;;;;5426336;26;22028;-62
2024/04/24 11:16:25;;;;;;;15.80;3.75;;;;;;;;;;5450727;26;20021;-61
2024/04/24 11:18:51;;;;;;;12.32;3.22;;;;;;;;;;5481545;26;20014;-62
2024/04/24 11:21:26;;;;;;;16.83;3.25;;;;;;;;;;5454716;26;20010;-62
2024/04/24 11:23:52;;;;;;;;;;;;;;;;;;5420954;26;20018;-62
2024/04/24 11:26:18;;;;;;;;;;;;;;;;;;5449428;26;19931;-62
2024/04/24 11:28:44;;;;;;;20.20;4.07;;;;;;;;;;5487373;26;19924;-62
2024/04/24 11:31:10;;;;;;;15.25;3.60;;;;;;;;;;5417396;26;20006;-63
2024/04/24 11:33:36;;;;;;;18.60;4.20;;;;;;;;;;5422850;26;19998;-62
2024/04/24 11:36:03;;;;;;;21.63;4.63;;;;;;;;;;5451754;26;20042;-62
2024/04/24 11:38:29;;;;;;;15.13;4.25;;;;;;;;;;5445844;26;20010;-63
2024/04/24 11:40:55;;;;;;;16.38;3.95;;;;;;;;;;5438131;26;20002;-62
2024/04/24 11:43:22;;;;;;;23.27;4.05;;;;;;;;;;5462641;26;20047;-62
2024/04/24 11:45:48;;;;;;;25.35;4.72;;;;;;;;;;5464992;26;20006;-62
2024/04/24 11:48:14;;;;;;;21.50;4.47;;;;;;;;;;5493561;26;20048;-62
2024/04/24 11:50:40;;;;;;;36.30;5.03;;;;;;;;;;5430093;26;19990;-62
2024/04/24 11:53:06;;;;;;;41.50;6.90;;;;;;;;;;5488522;26;19998;-62
2024/04/24 11:55:38;;;;;;;18.65;4.85;;;;;;;;;;5459377;26;20009;-62
2024/04/24 11:58:13;;;;;;;62.35;7.85;;;;;;;;;;5491434;26;21038;-62
2024/04/24 12:00:39;;;;;;;24.20;4.40;;;;;;;;;;5471334;26;19998;-62
2024/04/24 12:03:05;;;;;;;20.38;4.03;;;;;;;;;;5463542;26;20453;-62
2024/04/24 12:05:31;;;;;;;37.17;5.20;;;;;;;;;;5444887;26;20060;-63
2024/04/24 12:07:57;;;;;;;54.53;5.85;;;;;;;;;;5484125;26;19994;-62
2024/04/24 12:10:23;;;;;;;31.80;4.93;;;;;;;;;;5492053;26;20683;-62
2024/04/24 12:12:49;;;;;;;21.77;4.50;;;;;;;;;;5433956;26;20072;-62
2024/04/24 12:15:15;;;;;;;43.88;6.50;;;;;;;;;;5470297;26;20046;-62
2024/04/24 12:17:41;;;;;;;37.13;6.93;;;;;;;;;;5489621;26;20039;-62
2024/04/24 12:20:08;;;;;;;42.50;7.25;;;;;;;;;;5473726;26;20079;-62
2024/04/24 12:22:34;;;;;;;27.58;5.55;;;;;;;;;;5492355;26;19994;-62
2024/04/24 12:25:00;;;;;;;27.35;4.95;;;;;;;;;;5487929;26;20030;-62
2024/04/24 12:27:25;;;;;;;25.40;5.15;;;;;;;;;;5493672;26;20022;-62
2024/04/24 12:29:52;;;;;;;20.90;4.82;;;;;;;;;;5476513;26;20446;-62
2024/04/24 12:32:18;;;;;;;35.25;5.90;;;;;;;;;;5489412;26;20073;-62
2024/04/24 12:34:44;;;;;;;20.20;5.40;;;;;;;;;;5492303;26;20001;-62
2024/04/24 12:37:09;;;;;;;34.50;5.82;;;;;;;;;;5495868;26;19998;-62
2024/04/24 12:39:35;;;;;;;30.20;5.97;;;;;;;;;;5466175;26;20742;-62
2024/04/24 12:42:01;;;;;;;41.28;6.03;;;;;;;;;;5494231;26;20017;-62
2024/04/24 12:44:28;;;;;;;51.83;6.80;;;;;;;;;;5470025;26;20009;-62
2024/04/24 12:46:53;;;;;;;39.47;6.55;;;;;;;;;;5471409;26;20013;-62
2024/04/24 12:49:19;;;;;;;43.83;6.50;;;;;;;;;;5491233;26;20294;-62
2024/04/24 12:51:45;;;;;;;54.13;6.90;;;;;;;;;;5463933;26;20010;-62
2024/04/24 12:54:12;;;;;;;33.17;6.15;;;;;;;;;;5495266;26;20054;-62
2024/04/24 12:56:38;;;;;;;38.55;7.03;;;;;;;;;;5472364;26;20070;-62
2024/04/24 12:59:04;;;;;;;52.88;8.00;;;;;;;;;;5464273;26;20010;-62
2024/04/24 13:01:30;;;;;;;78.63;10.23;;;;;;;;;;5444721;26;20101;-62
2024/04/24 13:03:56;;;;;;;35.42;8.25;;;;;;;;;;5496247;26;20033;-62
2024/04/24 13:06:22;;;;;;;60.63;10.15;;;;;;;;;;5445449;26;20077;-62
2024/04/24 13:08:48;;;;;;;96.80;12.43;;;;;;;;;;5496968;26;20011;-62
2024/04/24 13:11:14;;;;;;;90.30;11.85;;;;;;;;;;5494481;26;20042;-62
2024/04/24 13:13:40;;;;;;;106.00;13.43;;;;;;;;;;5482600;26;20047;-62
2024/04/24 13:16:09;;;;;;;114.05;12.50;;;;;;;;;;5498518;26;20006;-62
2024/04/24 13:18:35;;;;;;;87.30;12.20;;;;;;;;;;5494676;26;20045;-62
2024/04/24 13:21:01;;;;;;;107.13;13.95;;;;;;;;;;5466584;26;20010;-62
2024/04/24 13:23:27;;;;;;;113.82;14.20;;;;;;;;;;5498023;26;20004;-62
2024/04/24 13:25:53;;;;;;;102.57;11.85;;;;;;;;;;5450714;26;20038;-62
2024/04/24 13:28:19;;;;;;;83.90;11.77;;;;;;;;;;5474172;26;20501;-62
2024/04/24 13:30:45;;;;;;;88.20;12.10;;;;;;;;;;5475459;26;20022;-62
2024/04/24 13:33:11;;;;;;;94.38;11.77;;;;;;;;;;5493757;26;21102;-62
2024/04/24 13:35:38;;;;;;;89.95;12.48;;;;;;;;;;5458734;26;20014;-62
2024/04/24 13:38:04;;;;;;;89.03;12.25;;;;;;;;;;5476470;26;19999;-61
2024/04/24 13:40:30;;;;;;;106.15;12.73;;;;;;;;;;5494113;26;19994;-62
2024/04/24 13:42:56;;;;;;;98.43;12.63;;;;;;;;;;5499248;26;20002;-62
2024/04/24 13:45:22;;;;;;;114.88;14.60;;;;;;;;;;5502989;26;19998;-62
2024/04/24 13:47:51;;;;;;;108.13;14.10;;;;;;;;;;5500494;26;20056;-63
2024/04/24 13:50:18;;;;;;;103.25;14.38;;;;;;;;;;5495433;26;20013;-62
2024/04/24 13:52:44;;;;;;;146.88;17.63;;;;;;;;;;5465053;26;20047;-62
2024/04/24 13:55:10;;;;;;;138.60;15.02;;;;;;;;;;5500796;26;20051;-62
2024/04/24 13:57:36;;;;;;;118.60;13.25;;;;;;;;;;5435637;26;20009;-62
2024/04/24 14:00:02;;;;;;;121.70;13.32;;;;;;;;;;5502515;26;19998;-61
2024/04/24 14:02:28;;;;;;;107.32;14.45;;;;;;;;;;5501024;26;20395;-62
2024/04/24 14:04:54;;;;;;;95.22;14.60;;;;;;;;;;5498422;26;19998;-62
2024/04/24 14:07:20;;;;;;;99.10;15.13;;;;;;;;;;5470641;26;20075;-62
2024/04/24 14:09:46;;;;;;;93.70;13.35;;;;;;;;;;5501490;26;20006;-62
2024/04/24 14:12:12;;;;;;;125.78;16.35;;;;;;;;;;5501725;26;20385;-51
2024/04/24 14:14:38;;;;;;;117.82;15.35;;;;;;;;;;5468637;26;19998;-50
2024/04/24 14:17:04;;;;;;;117.28;13.52;;;;;;;;;;5500721;26;19990;-50
2024/04/24 14:19:30;;;;;;;96.80;12.73;;;;;;;;;;5501803;26;20017;-50
2024/04/24 14:21:56;;;;;;;106.93;13.90;;;;;;;;;;5468980;26;20006;-51
2024/04/24 14:24:22;;;;;;;127.07;14.52;;;;;;;;;;5466161;26;20005;-51